Terminal Aerodrome Forecast
Issued by NWS San Angelo, TX

Home | Current Version | Previous Version | Text Only | Print | Product List | Glossary On
Versions: 1 2 3 4 5 6 7 8 9 10 11 12 13
000
FTUS44 KSJT 302336
TAFSJT
TAF
KSJT 302336Z 3100/3124 17011G16KT P6SM SCT100
     FM310200 18006KT P6SM FEW120
     FM311500 20009KT P6SM FEW250
     FM312100 16008KT P6SM SCT090=

USA.gov is the U.S. government's official web portal to all federal, state and local government web resources and services.